Greenville, Kentucky
Current Conditions -  °F | °C
As of 4:35 AM on Friday 31 Oct 2014 (Local Time) from K2I0 Reporting Station
Overcast Overcast  
Wind Chill: 50°   Ceiling: 6000
Heat Index: 50°   Visibility: 10mi
Dew Point: 47°   Wind: 5mph
Humidity: 89%   Direction: 10°N
Pressure: 30.01"   Gusts: NA
Location:  37.2°N, 87.18°W
Report Text: K2I0 310935Z AUTO 01004KT 10SM SCT041 OVC060 10/08 A3001 RMK AO2 T01000082
Loading
Personal Weather Stations






























Interactive Weather Map
Tropical Storm Tracking
New forecast layout! Learn more

10-Day Weather Forecast

Advertisements
Track Severe Weather on mobile